GTI1945 TAPA-TJSJ
Flight info
| Callsign | GTI1945 |
|---|---|
| Flight time | 0h 48m |
| Altitude | 34000 |
| Route | DANDE Y280 GOTAY |
| Aircraft | B77L/H-SDE1E2E3FGHIJ2J3J4J5M1RWXY/LB1D1 |
Departure
| Time | 2026-04-19 02:54 |
|---|---|
| Airport | V. C. Bird International Airport (TAPA) |
Arrival
| Time | 2026-04-19 03:43 |
|---|---|
| Airport | Luis Munoz Marin International Airport (TJSJ) |
| Time | Latitude | Longitude | Altitude | Speed | Heading |
|---|---|---|---|---|---|
| 2026-04-19 02:31 | 17.13879 | -61.79312 | 58 ft | 0 kts | 329° |
| 2026-04-19 02:45 | 17.13863 | -61.79303 | 58 ft | 4 kts | 333° |
| 2026-04-19 02:45 | 17.13838 | -61.79292 | 59 ft | 4 kts | 343° |
| 2026-04-19 02:45 | 17.13812 | -61.79286 | 59 ft | 4 kts | 1° |
| 2026-04-19 02:45 | 17.13787 | -61.79292 | 59 ft | 4 kts | 40° |
| 2026-04-19 02:46 | 17.13779 | -61.79302 | 59 ft | 1 kts | 58° |
| 2026-04-19 02:46 | 17.13778 | -61.79303 | 59 ft | 0 kts | 58° |
| 2026-04-19 02:49 | 17.13785 | -61.79292 | 59 ft | 3 kts | 58° |
| 2026-04-19 02:49 | 17.13803 | -61.79261 | 60 ft | 6 kts | 58° |
| 2026-04-19 02:49 | 17.13830 | -61.79214 | 66 ft | 9 kts | 58° |
| 2026-04-19 02:50 | 17.13868 | -61.79161 | 59 ft | 9 kts | 59° |
| 2026-04-19 02:50 | 17.13846 | -61.79113 | 61 ft | 8 kts | 147° |
| 2026-04-19 02:50 | 17.13792 | -61.79087 | 67 ft | 9 kts | 181° |
| 2026-04-19 02:51 | 17.13704 | -61.79212 | 63 ft | 14 kts | 238° |
| 2026-04-19 02:51 | 17.13649 | -61.79306 | 65 ft | 17 kts | 238° |
| 2026-04-19 02:51 | 17.13585 | -61.79413 | 67 ft | 18 kts | 238° |
| 2026-04-19 02:51 | 17.13514 | -61.79534 | 65 ft | 22 kts | 238° |
| 2026-04-19 02:52 | 17.13429 | -61.79677 | 62 ft | 25 kts | 238° |
| 2026-04-19 02:52 | 17.13331 | -61.79841 | 64 ft | 28 kts | 238° |
| 2026-04-19 02:52 | 17.13226 | -61.80021 | 62 ft | 30 kts | 239° |
| 2026-04-19 02:52 | 17.13163 | -61.80119 | 64 ft | 11 kts | 220° |
| 2026-04-19 02:53 | 17.13104 | -61.80159 | 66 ft | 9 kts | 247° |
| 2026-04-19 02:53 | 17.13130 | -61.80183 | 64 ft | 6 kts | 26° |
| 2026-04-19 02:53 | 17.13145 | -61.80165 | 62 ft | 0 kts | 59° |
| 2026-04-19 02:54 | 17.13148 | -61.80161 | 62 ft | 4 kts | 59° |
| 2026-04-19 02:54 | 17.13265 | -61.79959 | 64 ft | 80 kts | 58° |
| 2026-04-19 02:54 | 17.13743 | -61.79151 | 176 ft | 166 kts | 60° |
| 2026-04-19 02:54 | 17.14366 | -61.78138 | 1394 ft | 152 kts | 62° |
| 2026-04-19 02:55 | 17.14978 | -61.77304 | 2936 ft | 144 kts | 42° |
| 2026-04-19 02:55 | 17.15958 | -61.76787 | 3805 ft | 177 kts | 26° |
| 2026-04-19 02:55 | 17.17322 | -61.76533 | 4419 ft | 222 kts | 1° |
| 2026-04-19 02:55 | 17.18926 | -61.77064 | 4909 ft | 273 kts | 330° |
| 2026-04-19 02:56 | 17.20206 | -61.78600 | 6069 ft | 290 kts | 298° |
| 2026-04-19 02:56 | 17.20821 | -61.80620 | 7416 ft | 291 kts | 283° |
| 2026-04-19 02:56 | 17.21167 | -61.82720 | 8913 ft | 295 kts | 280° |
| 2026-04-19 02:56 | 17.21455 | -61.84845 | 10364 ft | 296 kts | 280° |
| 2026-04-19 02:57 | 17.21743 | -61.86987 | 11395 ft | 315 kts | 279° |
| 2026-04-19 02:57 | 17.22083 | -61.89431 | 12149 ft | 347 kts | 280° |
| 2026-04-19 02:57 | 17.22463 | -61.91927 | 13439 ft | 353 kts | 283° |
| 2026-04-19 02:57 | 17.23124 | -61.94443 | 14718 ft | 362 kts | 288° |
| 2026-04-19 02:58 | 17.23896 | -61.96959 | 16099 ft | 366 kts | 288° |
| 2026-04-19 02:58 | 17.24620 | -61.99529 | 17505 ft | 371 kts | 285° |
| 2026-04-19 02:58 | 17.25256 | -62.02151 | 18945 ft | 372 kts | 283° |
| 2026-04-19 02:58 | 17.25817 | -62.04821 | 20120 ft | 379 kts | 282° |
| 2026-04-19 02:59 | 17.26327 | -62.07555 | 21202 ft | 387 kts | 280° |
| 2026-04-19 02:59 | 17.26805 | -62.10352 | 22343 ft | 393 kts | 279° |
| 2026-04-19 02:59 | 17.27264 | -62.13193 | 23524 ft | 398 kts | 279° |
| 2026-04-19 02:59 | 17.27715 | -62.16065 | 24508 ft | 402 kts | 278° |
| 2026-04-19 03:00 | 17.28164 | -62.18971 | 25488 ft | 406 kts | 278° |
| 2026-04-19 03:00 | 17.28615 | -62.21905 | 26491 ft | 410 kts | 277° |
| 2026-04-19 03:00 | 17.29070 | -62.24870 | 27486 ft | 415 kts | 277° |
| 2026-04-19 03:00 | 17.29523 | -62.27823 | 28427 ft | 419 kts | 277° |
| 2026-04-19 03:01 | 17.29988 | -62.30855 | 29372 ft | 424 kts | 276° |
| 2026-04-19 03:01 | 17.30457 | -62.33909 | 30250 ft | 430 kts | 276° |
| 2026-04-19 03:01 | 17.30937 | -62.37037 | 31069 ft | 433 kts | 276° |
| 2026-04-19 03:01 | 17.31407 | -62.40092 | 31925 ft | 433 kts | 275° |
| 2026-04-19 03:02 | 17.31735 | -62.42224 | 32488 ft | 434 kts | 275° |
| 2026-04-19 03:02 | 17.32377 | -62.46406 | 33465 ft | 436 kts | 275° |
| 2026-04-19 03:02 | 17.32852 | -62.49516 | 34054 ft | 439 kts | 275° |
| 2026-04-19 03:02 | 17.33336 | -62.52680 | 34622 ft | 440 kts | 275° |
| 2026-04-19 03:03 | 17.33819 | -62.55838 | 35253 ft | 438 kts | 274° |
| 2026-04-19 03:03 | 17.34300 | -62.58974 | 36009 ft | 435 kts | 274° |
| 2026-04-19 03:03 | 17.34777 | -62.62092 | 36740 ft | 431 kts | 274° |
| 2026-04-19 03:03 | 17.35250 | -62.65190 | 37442 ft | 428 kts | 274° |
| 2026-04-19 03:04 | 17.35718 | -62.68259 | 38107 ft | 426 kts | 274° |
| 2026-04-19 03:04 | 17.36182 | -62.71318 | 38761 ft | 424 kts | 273° |
| 2026-04-19 03:04 | 17.36644 | -62.74360 | 39296 ft | 422 kts | 274° |
| 2026-04-19 03:04 | 17.37104 | -62.77396 | 39798 ft | 421 kts | 274° |
| 2026-04-19 03:05 | 17.37562 | -62.80425 | 40061 ft | 420 kts | 274° |
| 2026-04-19 03:05 | 17.38473 | -62.86459 | 40047 ft | 423 kts | 274° |
| 2026-04-19 03:06 | 17.39390 | -62.92534 | 40043 ft | 422 kts | 274° |
| 2026-04-19 03:06 | 17.40147 | -62.97539 | 40037 ft | 413 kts | 274° |
| 2026-04-19 03:07 | 17.41036 | -63.03445 | 40047 ft | 409 kts | 274° |
| 2026-04-19 03:07 | 17.41917 | -63.09327 | 40045 ft | 408 kts | 274° |
| 2026-04-19 03:08 | 17.42796 | -63.15204 | 40047 ft | 408 kts | 274° |
| 2026-04-19 03:08 | 17.43674 | -63.21086 | 40037 ft | 409 kts | 274° |
| 2026-04-19 03:09 | 17.44547 | -63.26944 | 40032 ft | 410 kts | 274° |
| 2026-04-19 03:09 | 17.45426 | -63.32847 | 40027 ft | 410 kts | 274° |
| 2026-04-19 03:10 | 17.46304 | -63.38754 | 40022 ft | 410 kts | 274° |
| 2026-04-19 03:10 | 17.47181 | -63.44675 | 40035 ft | 410 kts | 274° |
| 2026-04-19 03:11 | 17.48057 | -63.50593 | 40024 ft | 411 kts | 274° |
| 2026-04-19 03:11 | 17.48925 | -63.56474 | 40024 ft | 411 kts | 274° |
| 2026-04-19 03:12 | 17.49834 | -63.62373 | 40029 ft | 412 kts | 277° |
| 2026-04-19 03:12 | 17.51557 | -63.68167 | 40035 ft | 419 kts | 284° |
| 2026-04-19 03:13 | 17.54043 | -63.73702 | 40034 ft | 425 kts | 291° |
| 2026-04-19 03:13 | 17.56895 | -63.79141 | 40032 ft | 425 kts | 291° |
| 2026-04-19 03:14 | 17.59751 | -63.84574 | 40049 ft | 425 kts | 291° |
| 2026-04-19 03:14 | 17.62580 | -63.90017 | 40035 ft | 424 kts | 291° |
| 2026-04-19 03:15 | 17.65395 | -63.95464 | 40036 ft | 424 kts | 291° |
| 2026-04-19 03:15 | 17.68183 | -64.00867 | 40037 ft | 424 kts | 291° |
| 2026-04-19 03:16 | 17.70987 | -64.06305 | 40027 ft | 424 kts | 291° |
| 2026-04-19 03:16 | 17.73792 | -64.11749 | 40028 ft | 424 kts | 291° |
| 2026-04-19 03:17 | 17.76597 | -64.17197 | 40043 ft | 424 kts | 291° |
| 2026-04-19 03:17 | 17.79382 | -64.22610 | 40044 ft | 424 kts | 291° |
| 2026-04-19 03:18 | 17.82184 | -64.28066 | 40045 ft | 424 kts | 291° |
| 2026-04-19 03:18 | 17.84981 | -64.33529 | 40044 ft | 424 kts | 291° |
| 2026-04-19 03:19 | 17.87759 | -64.38961 | 40035 ft | 424 kts | 291° |
| 2026-04-19 03:19 | 17.90554 | -64.44431 | 40035 ft | 424 kts | 291° |
| 2026-04-19 03:19 | 17.91953 | -64.47171 | 39650 ft | 431 kts | 291° |
| 2026-04-19 03:20 | 17.93377 | -64.49968 | 38947 ft | 433 kts | 290° |
| 2026-04-19 03:20 | 17.94798 | -64.52750 | 38126 ft | 432 kts | 291° |
| 2026-04-19 03:20 | 17.96203 | -64.55503 | 37291 ft | 430 kts | 291° |
| 2026-04-19 03:20 | 17.97628 | -64.58296 | 36468 ft | 429 kts | 291° |
| 2026-04-19 03:21 | 17.99031 | -64.61049 | 35635 ft | 430 kts | 292° |
| 2026-04-19 03:21 | 18.00432 | -64.63799 | 34941 ft | 428 kts | 292° |
| 2026-04-19 03:21 | 18.01831 | -64.66544 | 34279 ft | 425 kts | 292° |
| 2026-04-19 03:21 | 18.03219 | -64.69269 | 33594 ft | 422 kts | 293° |
| 2026-04-19 03:22 | 18.04600 | -64.71982 | 32903 ft | 419 kts | 293° |
| 2026-04-19 03:22 | 18.05968 | -64.74672 | 32266 ft | 415 kts | 293° |
| 2026-04-19 03:22 | 18.07322 | -64.77336 | 31625 ft | 412 kts | 294° |
| 2026-04-19 03:22 | 18.08668 | -64.79984 | 31003 ft | 408 kts | 294° |
| 2026-04-19 03:23 | 18.10003 | -64.82614 | 30362 ft | 406 kts | 294° |
| 2026-04-19 03:23 | 18.11328 | -64.85228 | 29595 ft | 405 kts | 294° |
| 2026-04-19 03:23 | 18.12647 | -64.87828 | 28905 ft | 402 kts | 295° |
| 2026-04-19 03:23 | 18.13963 | -64.90423 | 28249 ft | 399 kts | 295° |
| 2026-04-19 03:24 | 18.15263 | -64.92987 | 27627 ft | 395 kts | 295° |
| 2026-04-19 03:24 | 18.16552 | -64.95531 | 27022 ft | 392 kts | 295° |
| 2026-04-19 03:24 | 18.17814 | -64.98021 | 26433 ft | 390 kts | 296° |
| 2026-04-19 03:24 | 18.19087 | -65.00533 | 25839 ft | 387 kts | 296° |
| 2026-04-19 03:25 | 18.20352 | -65.03029 | 25263 ft | 385 kts | 296° |
| 2026-04-19 03:25 | 18.21609 | -65.05512 | 24675 ft | 384 kts | 297° |
| 2026-04-19 03:25 | 18.22869 | -65.07999 | 24097 ft | 383 kts | 297° |
| 2026-04-19 03:25 | 18.24119 | -65.10469 | 23501 ft | 382 kts | 297° |
| 2026-04-19 03:26 | 18.25352 | -65.12905 | 22848 ft | 380 kts | 297° |
| 2026-04-19 03:26 | 18.26590 | -65.15353 | 22275 ft | 376 kts | 297° |
| 2026-04-19 03:26 | 18.27815 | -65.17776 | 21715 ft | 373 kts | 297° |
| 2026-04-19 03:26 | 18.29027 | -65.20175 | 21159 ft | 370 kts | 297° |
| 2026-04-19 03:27 | 18.30231 | -65.22560 | 20621 ft | 367 kts | 297° |
| 2026-04-19 03:27 | 18.31429 | -65.24934 | 20082 ft | 365 kts | 297° |
| 2026-04-19 03:27 | 18.32618 | -65.27289 | 19545 ft | 364 kts | 298° |
| 2026-04-19 03:27 | 18.33803 | -65.29639 | 19007 ft | 363 kts | 298° |
| 2026-04-19 03:28 | 18.34906 | -65.32016 | 18453 ft | 360 kts | 291° |
| 2026-04-19 03:28 | 18.35607 | -65.34546 | 17852 ft | 360 kts | 283° |
| 2026-04-19 03:28 | 18.35966 | -65.37148 | 17292 ft | 359 kts | 275° |
| 2026-04-19 03:28 | 18.36020 | -65.39774 | 16709 ft | 357 kts | 271° |
| 2026-04-19 03:29 | 18.36023 | -65.42381 | 16175 ft | 356 kts | 271° |
| 2026-04-19 03:29 | 18.36019 | -65.44945 | 15655 ft | 355 kts | 271° |
| 2026-04-19 03:29 | 18.36016 | -65.47555 | 15131 ft | 354 kts | 271° |
| 2026-04-19 03:29 | 18.36019 | -65.50142 | 14621 ft | 354 kts | 271° |
| 2026-04-19 03:30 | 18.36026 | -65.52734 | 14096 ft | 354 kts | 271° |
| 2026-04-19 03:30 | 18.36036 | -65.55330 | 13537 ft | 354 kts | 271° |
| 2026-04-19 03:30 | 18.36049 | -65.57924 | 12985 ft | 353 kts | 271° |
| 2026-04-19 03:30 | 18.36062 | -65.60465 | 12472 ft | 352 kts | 271° |
| 2026-04-19 03:31 | 18.36075 | -65.63080 | 11955 ft | 350 kts | 271° |
| 2026-04-19 03:31 | 18.36088 | -65.65612 | 11458 ft | 350 kts | 271° |
| 2026-04-19 03:31 | 18.36100 | -65.68165 | 10956 ft | 350 kts | 271° |
| 2026-04-19 03:31 | 18.36113 | -65.70733 | 10464 ft | 350 kts | 271° |
| 2026-04-19 03:32 | 18.36126 | -65.73259 | 10272 ft | 340 kts | 271° |
| 2026-04-19 03:32 | 18.36137 | -65.75711 | 10121 ft | 330 kts | 271° |
| 2026-04-19 03:32 | 18.36146 | -65.78008 | 9902 ft | 301 kts | 271° |
| 2026-04-19 03:32 | 18.36155 | -65.80213 | 9545 ft | 301 kts | 271° |
| 2026-04-19 03:33 | 18.36166 | -65.82419 | 9202 ft | 300 kts | 271° |
| 2026-04-19 03:33 | 18.36176 | -65.84610 | 8853 ft | 300 kts | 271° |
| 2026-04-19 03:33 | 18.36185 | -65.86763 | 8561 ft | 298 kts | 271° |
| 2026-04-19 03:33 | 18.36194 | -65.88955 | 8226 ft | 297 kts | 271° |
| 2026-04-19 03:34 | 18.36203 | -65.91126 | 7888 ft | 296 kts | 271° |
| 2026-04-19 03:34 | 18.36211 | -65.93288 | 7553 ft | 295 kts | 271° |
| 2026-04-19 03:34 | 18.36219 | -65.95403 | 7219 ft | 295 kts | 271° |
| 2026-04-19 03:34 | 18.36226 | -65.97607 | 6874 ft | 294 kts | 271° |
| 2026-04-19 03:35 | 18.36232 | -65.99760 | 6492 ft | 295 kts | 271° |
| 2026-04-19 03:35 | 18.36236 | -66.01914 | 6137 ft | 294 kts | 271° |
| 2026-04-19 03:35 | 18.36241 | -66.04077 | 5749 ft | 294 kts | 271° |
| 2026-04-19 03:35 | 18.36244 | -66.06172 | 5418 ft | 272 kts | 271° |
| 2026-04-19 03:36 | 18.36247 | -66.08069 | 5172 ft | 254 kts | 271° |
| 2026-04-19 03:36 | 18.36251 | -66.09939 | 4934 ft | 257 kts | 271° |
| 2026-04-19 03:36 | 18.36255 | -66.11814 | 4626 ft | 257 kts | 270° |
| 2026-04-19 03:36 | 18.36258 | -66.13699 | 4306 ft | 254 kts | 270° |
| 2026-04-19 03:37 | 18.36260 | -66.15552 | 4006 ft | 253 kts | 270° |
| 2026-04-19 03:37 | 18.36353 | -66.17375 | 3703 ft | 246 kts | 285° |
| 2026-04-19 03:37 | 18.37171 | -66.18924 | 3438 ft | 246 kts | 319° |
| 2026-04-19 03:37 | 18.38570 | -66.19783 | 3302 ft | 225 kts | 347° |
| 2026-04-19 03:38 | 18.40074 | -66.20022 | 3260 ft | 213 kts | 2° |
| 2026-04-19 03:38 | 18.41503 | -66.19888 | 3136 ft | 206 kts | 24° |
| 2026-04-19 03:38 | 18.42570 | -66.19012 | 3058 ft | 189 kts | 62° |
| 2026-04-19 03:38 | 18.42976 | -66.17746 | 2893 ft | 180 kts | 79° |
| 2026-04-19 03:39 | 18.43166 | -66.16449 | 2679 ft | 178 kts | 84° |
| 2026-04-19 03:39 | 18.43306 | -66.15170 | 2452 ft | 172 kts | 85° |
| 2026-04-19 03:39 | 18.43362 | -66.13968 | 2264 ft | 158 kts | 89° |
| 2026-04-19 03:39 | 18.43371 | -66.12838 | 2052 ft | 147 kts | 89° |
| 2026-04-19 03:40 | 18.43372 | -66.11837 | 1854 ft | 131 kts | 90° |
| 2026-04-19 03:40 | 18.43394 | -66.10884 | 1582 ft | 128 kts | 88° |
| 2026-04-19 03:40 | 18.43374 | -66.09974 | 1471 ft | 128 kts | 91° |
| 2026-04-19 03:40 | 18.43364 | -66.09018 | 1324 ft | 131 kts | 91° |
| 2026-04-19 03:41 | 18.43351 | -66.08067 | 1205 ft | 131 kts | 91° |
| 2026-04-19 03:41 | 18.43350 | -66.07095 | 1076 ft | 135 kts | 89° |
| 2026-04-19 03:41 | 18.43350 | -66.06103 | 909 ft | 134 kts | 90° |
| 2026-04-19 03:41 | 18.43346 | -66.05132 | 759 ft | 133 kts | 91° |
| 2026-04-19 03:42 | 18.43353 | -66.04166 | 594 ft | 132 kts | 89° |
| 2026-04-19 03:42 | 18.43357 | -66.03205 | 368 ft | 127 kts | 91° |
| 2026-04-19 03:42 | 18.43356 | -66.02287 | 205 ft | 124 kts | 90° |
| 2026-04-19 03:42 | 18.43357 | -66.01378 | 36 ft | 124 kts | 90° |
| 2026-04-19 03:43 | 18.43349 | -66.00543 | -29 ft | 102 kts | 88° |
| 2026-04-19 03:43 | 18.43355 | -65.99905 | -28 ft | 70 kts | 90° |
| 2026-04-19 03:43 | 18.43358 | -65.99630 | -29 ft | 22 kts | 80° |
| 2026-04-19 03:43 | 18.43412 | -65.99555 | -24 ft | 13 kts | 19° |
| 2026-04-19 03:44 | 18.43471 | -65.99535 | -26 ft | 8 kts | 54° |
| 2026-04-19 03:44 | 18.43468 | -65.99470 | -24 ft | 11 kts | 96° |
| 2026-04-19 03:44 | 18.43460 | -65.99375 | -24 ft | 15 kts | 89° |
| 2026-04-19 03:44 | 18.43462 | -65.99281 | -29 ft | 13 kts | 89° |
| 2026-04-19 03:45 | 18.43463 | -65.99193 | -28 ft | 5 kts | 92° |
| 2026-04-19 03:45 | 18.43461 | -65.99139 | -30 ft | 9 kts | 92° |
| 2026-04-19 03:45 | 18.43501 | -65.99088 | -28 ft | 11 kts | 353° |
| 2026-04-19 03:45 | 18.43575 | -65.99105 | -23 ft | 11 kts | 331° |
| 2026-04-19 03:46 | 18.43594 | -65.99169 | -20 ft | 11 kts | 277° |
| 2026-04-19 03:46 | 18.43633 | -65.99196 | -21 ft | 7 kts | 5° |
| 2026-04-19 03:46 | 18.43662 | -65.99196 | -22 ft | 0 kts | 358° |